Muzaffargarh Weather



Muzaffargarh's Current Weather

Temprature 38o haze

haze

Rain: 0 %

Min Temprature38o
Max Temprature38o
Humidity22
Wind Speed3.09 m/h
Sun Rise05:26:37
Sun Set18:56:50
Current Time: 08-May-2021 14:31:51
Lat/Lon: 30.0754, 71.1921




Muzaffargarh's Geo Location



Muzaffargarh's Weather Forecast

Time Overall Temp Min Temp Max Temp Humidity Wind Speed Rain
08-May-2021 (Sat)
17:00:00 broken clouds 39.010 39.010 41.040 17 2.5 m/h 0 %
20:00:00 broken clouds 36.980 36.470 36.980 14 0.74 m/h 0 %
23:00:00 broken clouds 32.810 32.810 32.810 18 4.4 m/h 0 %
09-May-2021 (Sun)
02:00:00 overcast clouds 30.500 30.500 30.500 25 4.08 m/h 0 %
05:00:00 broken clouds 29.370 29.370 29.370 24 1.66 m/h 0 %
08:00:00 clear sky 34.030 34.030 34.030 18 3.01 m/h 0 %
11:00:00 few clouds 39.520 39.520 39.520 13 2.6 m/h 0 %
14:00:00 clear sky 42.370 42.370 42.370 9 3.09 m/h 0 %
17:00:00 clear sky 42.330 42.330 42.330 8 2.7 m/h 0 %
20:00:00 clear sky 36.660 36.660 36.660 13 1.71 m/h 0 %
23:00:00 few clouds 33.920 33.920 33.920 17 1.01 m/h 0 %
10-May-2021 (Mon)
02:00:00 clear sky 32.120 32.120 32.120 18 3.02 m/h 0 %
05:00:00 scattered clouds 30.660 30.660 30.660 22 1.49 m/h 0 %
08:00:00 clear sky 34.820 34.820 34.820 18 3.09 m/h 0 %
11:00:00 clear sky 40.260 40.260 40.260 13 3.85 m/h 0 %
14:00:00 clear sky 42.680 42.680 42.680 10 2.47 m/h 0 %
17:00:00 clear sky 39.140 39.140 39.140 15 7.96 m/h 0 %
20:00:00 overcast clouds 32.480 32.480 32.480 27 7.26 m/h 0 %
23:00:00 broken clouds 32.020 32.020 32.020 25 5.61 m/h 0 %
11-May-2021 (Tue)
02:00:00 overcast clouds 30.720 30.720 30.720 30 6.52 m/h 0 %
05:00:00 broken clouds 28.920 28.920 28.920 34 3.4 m/h 0 %
08:00:00 clear sky 34.150 34.150 34.150 26 5.56 m/h 0 %
11:00:00 clear sky 40.000 40.000 40.000 14 1.94 m/h 0 %
14:00:00 clear sky 43.180 43.180 43.180 10 0.95 m/h 0 %
17:00:00 few clouds 41.260 41.260 41.260 12 9.1 m/h 0 %
20:00:00 light rain 34.050 34.050 34.050 23 2.07 m/h 74 %
23:00:00 overcast clouds 33.070 33.070 33.070 26 3.73 m/h 0 %
12-May-2021 (Wed)
02:00:00 overcast clouds 32.220 32.220 32.220 27 3.74 m/h 0 %
05:00:00 overcast clouds 30.400 30.400 30.400 31 1.19 m/h 0 %
08:00:00 overcast clouds 33.010 33.010 33.010 27 1.21 m/h 0 %
11:00:00 overcast clouds 37.210 37.210 37.210 20 1.56 m/h 0 %
14:00:00 few clouds 40.140 40.140 40.140 16 1.69 m/h 0 %
17:00:00 few clouds 40.420 40.420 40.420 13 2.7 m/h 0 %
20:00:00 light rain 27.850 27.850 27.850 49 9 m/h 94 %
23:00:00 broken clouds 29.320 29.320 29.320 36 2.47 m/h 0 %
13-May-2021 (Thu)
02:00:00 broken clouds 28.060 28.060 28.060 40 0.34 m/h 0 %
05:00:00 scattered clouds 26.800 26.800 26.800 45 2.13 m/h 0 %
08:00:00 scattered clouds 30.220 30.220 30.220 38 3.71 m/h 0 %
11:00:00 scattered clouds 34.950 34.950 34.950 26 3.58 m/h 0 %
14:00:00 clear sky 38.060 38.060 38.060 20 2.62 m/h 0 %

Famous Cities (60)